DLH8HV EDDL-EDDM
Flight info
| Callsign | DLH8HV |
|---|---|
| Flight time | 0h 43m |
| Altitude | 35000 |
| Route | DODEN4H DODEN Y853 BOMBI T104 HAREM/N0379F270 T104 ROKIL ROKIL1B |
| Aircraft | A320/M-SDE2E3FGIJ1LORWXYZ/HB1 |
Departure
| Time | 2026-05-04 19:45 |
|---|---|
| Airport | Düsseldorf Airport (EDDL) |
Arrival
| Time | 2026-05-04 20:29 |
|---|---|
| Airport | Munich Airport (EDDM) |
| Time | Latitude | Longitude | Altitude | Speed | Heading |
|---|---|---|---|---|---|
| 2026-05-04 18:51 | 51.28439 | 6.76971 | 124 ft | 0 kts | 322° |
| 2026-05-04 19:29 | 51.28422 | 6.76992 | 127 ft | 2 kts | 322° |
| 2026-05-04 19:29 | 51.28406 | 6.77017 | 125 ft | 4 kts | 292° |
| 2026-05-04 19:29 | 51.28404 | 6.77055 | 125 ft | 4 kts | 241° |
| 2026-05-04 19:30 | 51.28413 | 6.77076 | 123 ft | 0 kts | 233° |
| 2026-05-04 19:31 | 51.28380 | 6.77008 | 127 ft | 19 kts | 232° |
| 2026-05-04 19:31 | 51.28394 | 6.76834 | 127 ft | 19 kts | 320° |
| 2026-05-04 19:31 | 51.28454 | 6.76777 | 127 ft | 8 kts | 348° |
| 2026-05-04 19:32 | 51.28533 | 6.76871 | 126 ft | 34 kts | 56° |
| 2026-05-04 19:32 | 51.28652 | 6.77118 | 130 ft | 21 kts | 52° |
| 2026-05-04 19:32 | 51.28743 | 6.77311 | 130 ft | 23 kts | 53° |
| 2026-05-04 19:32 | 51.28842 | 6.77516 | 130 ft | 24 kts | 51° |
| 2026-05-04 19:33 | 51.28943 | 6.77734 | 130 ft | 22 kts | 52° |
| 2026-05-04 19:33 | 51.29040 | 6.77933 | 131 ft | 23 kts | 53° |
| 2026-05-04 19:33 | 51.29140 | 6.78142 | 135 ft | 23 kts | 54° |
| 2026-05-04 19:33 | 51.29206 | 6.78264 | 139 ft | 8 kts | 39° |
| 2026-05-04 19:34 | 51.29242 | 6.78307 | 141 ft | 7 kts | 37° |
| 2026-05-04 19:34 | 51.29305 | 6.78380 | 144 ft | 12 kts | 36° |
| 2026-05-04 19:34 | 51.29342 | 6.78423 | 146 ft | 0 kts | 36° |
| 2026-05-04 19:36 | 51.29351 | 6.78433 | 147 ft | 0 kts | 36° |
| 2026-05-04 19:37 | 51.29352 | 6.78435 | 147 ft | 2 kts | 36° |
| 2026-05-04 19:38 | 51.29379 | 6.78459 | 148 ft | 7 kts | 25° |
| 2026-05-04 19:38 | 51.29391 | 6.78465 | 149 ft | 0 kts | 15° |
| 2026-05-04 19:42 | 51.29426 | 6.78469 | 149 ft | 11 kts | 359° |
| 2026-05-04 19:42 | 51.29469 | 6.78368 | 149 ft | 6 kts | 230° |
| 2026-05-04 19:43 | 51.29456 | 6.78336 | 148 ft | 11 kts | 234° |
| 2026-05-04 19:43 | 51.29441 | 6.78307 | 148 ft | 0 kts | 232° |
| 2026-05-04 19:44 | 51.29340 | 6.78097 | 143 ft | 61 kts | 233° |
| 2026-05-04 19:45 | 51.28942 | 6.77261 | 126 ft | 125 kts | 233° |
| 2026-05-04 19:45 | 51.28336 | 6.75989 | 356 ft | 153 kts | 232° |
| 2026-05-04 19:45 | 51.27674 | 6.74532 | 869 ft | 162 kts | 232° |
| 2026-05-04 19:45 | 51.27002 | 6.73078 | 1581 ft | 167 kts | 231° |
| 2026-05-04 19:46 | 51.26261 | 6.71490 | 1957 ft | 189 kts | 232° |
| 2026-05-04 19:46 | 51.25423 | 6.69699 | 2293 ft | 214 kts | 232° |
| 2026-05-04 19:46 | 51.24478 | 6.67681 | 2770 ft | 239 kts | 232° |
| 2026-05-04 19:46 | 51.23439 | 6.65490 | 3457 ft | 253 kts | 229° |
| 2026-05-04 19:47 | 51.22013 | 6.63846 | 4365 ft | 258 kts | 198° |
| 2026-05-04 19:47 | 51.20230 | 6.63606 | 5323 ft | 261 kts | 176° |
| 2026-05-04 19:47 | 51.18409 | 6.63877 | 6319 ft | 264 kts | 175° |
| 2026-05-04 19:47 | 51.16577 | 6.64199 | 7219 ft | 267 kts | 172° |
| 2026-05-04 19:48 | 51.14836 | 6.65254 | 8079 ft | 274 kts | 146° |
| 2026-05-04 19:48 | 51.13558 | 6.67529 | 8953 ft | 283 kts | 119° |
| 2026-05-04 19:48 | 51.13069 | 6.70588 | 9827 ft | 292 kts | 92° |
| 2026-05-04 19:48 | 51.13160 | 6.73899 | 10329 ft | 310 kts | 89° |
| 2026-05-04 19:49 | 51.13298 | 6.77439 | 10721 ft | 328 kts | 88° |
| 2026-05-04 19:49 | 51.13453 | 6.81106 | 11410 ft | 335 kts | 88° |
| 2026-05-04 19:49 | 51.13609 | 6.84829 | 12172 ft | 340 kts | 89° |
| 2026-05-04 19:49 | 51.13763 | 6.88606 | 12938 ft | 344 kts | 89° |
| 2026-05-04 19:50 | 51.13913 | 6.92436 | 13720 ft | 349 kts | 89° |
| 2026-05-04 19:50 | 51.14058 | 6.96315 | 14393 ft | 353 kts | 89° |
| 2026-05-04 19:50 | 51.14187 | 7.00233 | 15084 ft | 356 kts | 92° |
| 2026-05-04 19:50 | 51.13854 | 7.04116 | 15742 ft | 355 kts | 110° |
| 2026-05-04 19:51 | 51.13298 | 7.06561 | 16192 ft | 356 kts | 113° |
| 2026-05-04 19:51 | 51.12406 | 7.10259 | 16875 ft | 359 kts | 114° |
| 2026-05-04 19:51 | 51.11493 | 7.13980 | 17541 ft | 363 kts | 114° |
| 2026-05-04 19:51 | 51.10563 | 7.17738 | 18215 ft | 367 kts | 114° |
| 2026-05-04 19:52 | 51.09619 | 7.21535 | 18789 ft | 370 kts | 114° |
| 2026-05-04 19:52 | 51.08668 | 7.25367 | 19350 ft | 374 kts | 114° |
| 2026-05-04 19:52 | 51.07713 | 7.29235 | 19905 ft | 378 kts | 114° |
| 2026-05-04 19:52 | 51.06750 | 7.33146 | 20478 ft | 382 kts | 114° |
| 2026-05-04 19:53 | 51.05776 | 7.37107 | 21031 ft | 386 kts | 114° |
| 2026-05-04 19:53 | 51.04793 | 7.41096 | 21585 ft | 390 kts | 114° |
| 2026-05-04 19:53 | 51.03794 | 7.45129 | 22148 ft | 394 kts | 114° |
| 2026-05-04 19:53 | 51.02782 | 7.49199 | 22693 ft | 398 kts | 114° |
| 2026-05-04 19:54 | 51.01761 | 7.53297 | 23249 ft | 402 kts | 115° |
| 2026-05-04 19:54 | 51.00724 | 7.57443 | 23760 ft | 405 kts | 115° |
| 2026-05-04 19:54 | 50.99680 | 7.61603 | 24221 ft | 408 kts | 115° |
| 2026-05-04 19:54 | 50.98623 | 7.65817 | 24691 ft | 411 kts | 116° |
| 2026-05-04 19:55 | 50.97364 | 7.69862 | 24942 ft | 408 kts | 126° |
| 2026-05-04 19:55 | 50.95690 | 7.73453 | 24999 ft | 402 kts | 136° |
| 2026-05-04 19:55 | 50.93655 | 7.76464 | 25007 ft | 397 kts | 146° |
| 2026-05-04 19:55 | 50.91372 | 7.78879 | 25007 ft | 395 kts | 152° |
| 2026-05-04 19:56 | 50.89038 | 7.81168 | 25005 ft | 395 kts | 152° |
| 2026-05-04 19:56 | 50.86703 | 7.83463 | 25004 ft | 395 kts | 152° |
| 2026-05-04 19:56 | 50.84371 | 7.85762 | 25003 ft | 395 kts | 151° |
| 2026-05-04 19:56 | 50.82042 | 7.88059 | 25003 ft | 395 kts | 152° |
| 2026-05-04 19:57 | 50.79708 | 7.90351 | 25000 ft | 395 kts | 152° |
| 2026-05-04 19:57 | 50.77376 | 7.92631 | 25000 ft | 395 kts | 152° |
| 2026-05-04 19:57 | 50.75043 | 7.94913 | 25004 ft | 395 kts | 152° |
| 2026-05-04 19:57 | 50.72731 | 7.97169 | 25170 ft | 397 kts | 152° |
| 2026-05-04 19:58 | 50.70345 | 7.99490 | 25684 ft | 399 kts | 152° |
| 2026-05-04 19:58 | 50.67995 | 8.01771 | 25942 ft | 407 kts | 152° |
| 2026-05-04 19:58 | 50.65556 | 8.04133 | 26074 ft | 416 kts | 152° |
| 2026-05-04 19:58 | 50.63066 | 8.06545 | 26196 ft | 425 kts | 152° |
| 2026-05-04 19:59 | 50.60529 | 8.09040 | 26329 ft | 434 kts | 148° |
| 2026-05-04 19:59 | 50.58138 | 8.12023 | 26448 ft | 444 kts | 143° |
| 2026-05-04 19:59 | 50.55725 | 8.15199 | 26574 ft | 450 kts | 143° |
| 2026-05-04 19:59 | 50.53344 | 8.18325 | 26705 ft | 454 kts | 143° |
| 2026-05-04 20:00 | 50.50901 | 8.21527 | 26827 ft | 459 kts | 143° |
| 2026-05-04 20:00 | 50.48445 | 8.24747 | 26955 ft | 461 kts | 143° |
| 2026-05-04 20:00 | 50.45981 | 8.27978 | 27093 ft | 463 kts | 143° |
| 2026-05-04 20:00 | 50.43498 | 8.31228 | 27241 ft | 465 kts | 143° |
| 2026-05-04 20:01 | 50.41009 | 8.34471 | 27376 ft | 466 kts | 143° |
| 2026-05-04 20:01 | 50.38518 | 8.37705 | 27518 ft | 466 kts | 143° |
| 2026-05-04 20:01 | 50.35986 | 8.40990 | 27704 ft | 466 kts | 143° |
| 2026-05-04 20:01 | 50.33522 | 8.44186 | 27905 ft | 466 kts | 143° |
| 2026-05-04 20:02 | 50.31028 | 8.47420 | 28103 ft | 465 kts | 143° |
| 2026-05-04 20:02 | 50.28661 | 8.50485 | 28300 ft | 465 kts | 144° |
| 2026-05-04 20:02 | 50.26105 | 8.53787 | 28502 ft | 465 kts | 144° |
| 2026-05-04 20:02 | 50.23657 | 8.56946 | 28698 ft | 464 kts | 144° |
| 2026-05-04 20:03 | 50.21163 | 8.60156 | 28901 ft | 464 kts | 144° |
| 2026-05-04 20:03 | 50.18666 | 8.63364 | 29109 ft | 464 kts | 144° |
| 2026-05-04 20:03 | 50.16178 | 8.66560 | 29319 ft | 463 kts | 144° |
| 2026-05-04 20:03 | 50.13690 | 8.69752 | 29538 ft | 463 kts | 144° |
| 2026-05-04 20:04 | 50.11201 | 8.72941 | 29765 ft | 463 kts | 144° |
| 2026-05-04 20:04 | 50.08721 | 8.76117 | 29982 ft | 462 kts | 144° |
| 2026-05-04 20:04 | 50.06231 | 8.79298 | 30186 ft | 462 kts | 144° |
| 2026-05-04 20:04 | 50.03771 | 8.82514 | 30392 ft | 462 kts | 143° |
| 2026-05-04 20:05 | 50.01368 | 8.85834 | 30582 ft | 462 kts | 141° |
| 2026-05-04 20:05 | 49.99010 | 8.89216 | 30788 ft | 462 kts | 141° |
| 2026-05-04 20:05 | 49.96667 | 8.92627 | 30991 ft | 461 kts | 141° |
| 2026-05-04 20:05 | 49.94330 | 8.96017 | 31190 ft | 460 kts | 141° |
| 2026-05-04 20:06 | 49.91973 | 8.99395 | 31403 ft | 460 kts | 141° |
| 2026-05-04 20:06 | 49.89616 | 9.02735 | 31601 ft | 459 kts | 142° |
| 2026-05-04 20:06 | 49.87251 | 9.06058 | 31803 ft | 458 kts | 142° |
| 2026-05-04 20:06 | 49.84895 | 9.09355 | 32016 ft | 457 kts | 142° |
| 2026-05-04 20:07 | 49.82530 | 9.12655 | 32243 ft | 456 kts | 142° |
| 2026-05-04 20:07 | 49.80173 | 9.15939 | 32472 ft | 456 kts | 142° |
| 2026-05-04 20:07 | 49.77817 | 9.19220 | 32676 ft | 455 kts | 142° |
| 2026-05-04 20:07 | 49.75469 | 9.22490 | 32896 ft | 454 kts | 142° |
| 2026-05-04 20:08 | 49.73123 | 9.25759 | 32981 ft | 454 kts | 142° |
| 2026-05-04 20:08 | 49.68437 | 9.32282 | 32989 ft | 453 kts | 142° |
| 2026-05-04 20:09 | 49.63749 | 9.38784 | 32987 ft | 453 kts | 142° |
| 2026-05-04 20:09 | 49.59351 | 9.45791 | 32981 ft | 457 kts | 135° |
| 2026-05-04 20:10 | 49.55165 | 9.53147 | 32977 ft | 456 kts | 135° |
| 2026-05-04 20:10 | 49.50974 | 9.60502 | 32987 ft | 457 kts | 135° |
| 2026-05-04 20:11 | 49.46778 | 9.67830 | 32995 ft | 457 kts | 135° |
| 2026-05-04 20:11 | 49.42568 | 9.75150 | 32997 ft | 457 kts | 135° |
| 2026-05-04 20:12 | 49.38358 | 9.82460 | 33005 ft | 457 kts | 135° |
| 2026-05-04 20:12 | 49.34138 | 9.89764 | 33001 ft | 457 kts | 135° |
| 2026-05-04 20:13 | 49.29907 | 9.97047 | 33001 ft | 458 kts | 135° |
| 2026-05-04 20:13 | 49.25663 | 10.04317 | 32995 ft | 457 kts | 136° |
| 2026-05-04 20:14 | 49.21344 | 10.11462 | 32994 ft | 457 kts | 137° |
| 2026-05-04 20:14 | 49.16979 | 10.18509 | 32994 ft | 457 kts | 137° |
| 2026-05-04 20:15 | 49.12617 | 10.25569 | 32994 ft | 457 kts | 136° |
| 2026-05-04 20:15 | 49.08257 | 10.32641 | 32991 ft | 457 kts | 136° |
| 2026-05-04 20:16 | 49.03898 | 10.39710 | 32995 ft | 457 kts | 136° |
| 2026-05-04 20:16 | 48.99534 | 10.46763 | 32994 ft | 457 kts | 136° |
| 2026-05-04 20:17 | 48.95170 | 10.53792 | 32995 ft | 457 kts | 136° |
| 2026-05-04 20:17 | 48.90796 | 10.60813 | 32993 ft | 457 kts | 136° |
| 2026-05-04 20:18 | 48.86418 | 10.67801 | 32983 ft | 456 kts | 136° |
| 2026-05-04 20:18 | 48.84247 | 10.71274 | 32857 ft | 451 kts | 136° |
| 2026-05-04 20:18 | 48.82073 | 10.74743 | 31726 ft | 456 kts | 136° |
| 2026-05-04 20:18 | 48.79908 | 10.78189 | 30517 ft | 458 kts | 136° |
| 2026-05-04 20:19 | 48.77702 | 10.81700 | 29203 ft | 462 kts | 136° |
| 2026-05-04 20:19 | 48.75481 | 10.85227 | 27866 ft | 461 kts | 136° |
| 2026-05-04 20:19 | 48.73298 | 10.88692 | 26968 ft | 444 kts | 136° |
| 2026-05-04 20:19 | 48.71217 | 10.92001 | 26051 ft | 429 kts | 136° |
| 2026-05-04 20:20 | 48.69164 | 10.95254 | 24878 ft | 424 kts | 136° |
| 2026-05-04 20:20 | 48.67138 | 10.98453 | 23798 ft | 419 kts | 136° |
| 2026-05-04 20:20 | 48.65133 | 11.01615 | 22626 ft | 413 kts | 136° |
| 2026-05-04 20:20 | 48.63161 | 11.04725 | 21511 ft | 407 kts | 136° |
| 2026-05-04 20:21 | 48.61214 | 11.07786 | 20469 ft | 401 kts | 136° |
| 2026-05-04 20:21 | 48.59288 | 11.10808 | 19489 ft | 396 kts | 137° |
| 2026-05-04 20:21 | 48.55433 | 11.16579 | 17483 ft | 385 kts | 140° |
| 2026-05-04 20:22 | 48.53466 | 11.19270 | 16495 ft | 378 kts | 141° |
| 2026-05-04 20:22 | 48.51512 | 11.21866 | 15548 ft | 371 kts | 142° |
| 2026-05-04 20:22 | 48.49583 | 11.24403 | 14636 ft | 365 kts | 142° |
| 2026-05-04 20:22 | 48.47691 | 11.26910 | 13750 ft | 359 kts | 142° |
| 2026-05-04 20:23 | 48.45843 | 11.29386 | 12750 ft | 353 kts | 141° |
| 2026-05-04 20:23 | 48.44025 | 11.31840 | 11752 ft | 348 kts | 141° |
| 2026-05-04 20:23 | 48.42247 | 11.34250 | 10770 ft | 343 kts | 141° |
| 2026-05-04 20:23 | 48.40482 | 11.36647 | 9835 ft | 341 kts | 141° |
| 2026-05-04 20:24 | 48.38728 | 11.39027 | 8897 ft | 338 kts | 140° |
| 2026-05-04 20:24 | 48.36989 | 11.41378 | 7988 ft | 334 kts | 140° |
| 2026-05-04 20:24 | 48.35271 | 11.43688 | 7106 ft | 328 kts | 140° |
| 2026-05-04 20:24 | 48.33684 | 11.46090 | 6280 ft | 321 kts | 128° |
| 2026-05-04 20:25 | 48.32680 | 11.48930 | 5476 ft | 315 kts | 108° |
| 2026-05-04 20:25 | 48.32334 | 11.52073 | 5130 ft | 294 kts | 91° |
| 2026-05-04 20:25 | 48.32484 | 11.54994 | 5004 ft | 266 kts | 84° |
| 2026-05-04 20:25 | 48.32688 | 11.57540 | 5001 ft | 227 kts | 84° |
| 2026-05-04 20:26 | 48.32868 | 11.59800 | 4420 ft | 215 kts | 84° |
| 2026-05-04 20:26 | 48.33039 | 11.61987 | 3799 ft | 204 kts | 84° |
| 2026-05-04 20:26 | 48.33191 | 11.63990 | 3359 ft | 185 kts | 84° |
| 2026-05-04 20:26 | 48.33325 | 11.65804 | 3087 ft | 165 kts | 83° |
| 2026-05-04 20:27 | 48.33472 | 11.67453 | 2769 ft | 155 kts | 81° |
| 2026-05-04 20:27 | 48.33590 | 11.69032 | 2390 ft | 151 kts | 84° |
| 2026-05-04 20:27 | 48.33713 | 11.70498 | 2078 ft | 147 kts | 79° |
| 2026-05-04 20:27 | 48.33829 | 11.71895 | 1902 ft | 145 kts | 83° |
| 2026-05-04 20:28 | 48.33923 | 11.73230 | 1769 ft | 143 kts | 82° |
| 2026-05-04 20:28 | 48.34044 | 11.74716 | 1591 ft | 143 kts | 83° |
| 2026-05-04 20:28 | 48.34137 | 11.75654 | 1497 ft | 137 kts | 79° |
| 2026-05-04 20:28 | 48.34226 | 11.76903 | 1485 ft | 104 kts | 92° |
| 2026-05-04 20:29 | 48.34281 | 11.77786 | 1485 ft | 68 kts | 83° |
| 2026-05-04 20:29 | 48.34318 | 11.78344 | 1485 ft | 40 kts | 85° |
| 2026-05-04 20:29 | 48.34346 | 11.78742 | 1485 ft | 38 kts | 82° |
| 2026-05-04 20:29 | 48.34391 | 11.79134 | 1485 ft | 38 kts | 69° |
| 2026-05-04 20:30 | 48.34564 | 11.79411 | 1473 ft | 36 kts | 45° |
| 2026-05-04 20:30 | 48.34656 | 11.79574 | 1485 ft | 0 kts | 52° |
| 2026-05-04 20:30 | 48.35466 | 11.80020 | 1475 ft | 0 kts | 263° |